Time;durP1;ratioP1;P1;durP2;ratioP2;P2;SDS_P1;SDS_P2;PMS_P1;PMS_P2;Temp;Humidity;BMP_temperature;BMP_pressure;BME280_temperature;BME280_humidity;BME280_pressure;Samples;Min_cycle;Max_cycle;Signal;HPM_P1;HPM_P2
2023/04/02 00:02:21;;;;;;;12.55;9.65;;;;;;;6.41;100.00;100936.41;5043948;28;20025;-62
2023/04/02 00:05:18;;;;;;;12.75;10.15;;;;;;;6.40;100.00;100943.44;5042357;28;20083;-62
2023/04/02 00:07:48;;;;;;;12.32;9.00;;;;;;;6.42;100.00;100935.44;5032289;28;20045;-61
2023/04/02 00:10:38;;;;;;;12.30;9.38;;;;;;;6.39;100.00;100940.94;5034013;28;20055;-63
2023/04/02 00:13:09;;;;;;;12.27;9.48;;;;;;;6.30;100.00;100946.03;5042743;28;20029;-62
2023/04/02 00:15:43;;;;;;;11.57;9.30;;;;;;;6.31;100.00;100952.13;5032950;28;20029;-62
2023/04/02 00:18:12;;;;;;;12.48;10.20;;;;;;;6.31;100.00;100949.50;5039570;28;20078;-62
2023/04/02 00:20:42;;;;;;;12.35;9.88;;;;;;;6.32;100.00;100957.28;5033629;28;20595;-63
2023/04/02 00:23:10;;;;;;;13.15;10.32;;;;;;;6.36;100.00;100962.28;5041663;28;20044;-62
2023/04/02 00:25:41;;;;;;;15.00;11.10;;;;;;;6.30;100.00;100968.91;5041881;28;20090;-62
2023/04/02 00:28:12;;;;;;;14.15;11.18;;;;;;;6.21;100.00;100970.50;5043861;28;20497;-62
2023/04/02 00:30:45;;;;;;;13.65;11.35;;;;;;;6.24;100.00;100972.91;5043703;28;20029;-62
2023/04/02 00:33:16;;;;;;;16.25;11.48;;;;;;;6.19;100.00;100983.81;5041870;28;20028;-62
2023/04/02 00:35:41;;;;;;;14.48;11.70;;;;;;;6.13;100.00;100983.50;5042571;28;20041;-63
2023/04/02 00:38:23;;;;;;;13.88;11.43;;;;;;;6.15;100.00;100981.56;5043013;28;20037;-63
2023/04/02 00:40:51;;;;;;;14.10;10.18;;;;;;;6.11;100.00;100986.25;5044053;28;20060;-62
2023/04/02 00:43:17;;;;;;;13.93;10.75;;;;;;;6.05;100.00;100987.63;5043668;28;20057;-63
2023/04/02 00:45:49;;;;;;;14.55;11.20;;;;;;;6.11;100.00;100991.50;5041260;28;20404;-62
2023/04/02 00:48:30;;;;;;;13.02;8.85;;;;;;;6.37;100.00;101001.66;5039838;28;20528;-63
2023/04/02 00:50:59;;;;;;;14.00;11.18;;;;;;;5.99;100.00;101001.25;5036696;28;20037;-62
2023/04/02 00:53:27;;;;;;;14.68;10.93;;;;;;;5.98;100.00;101001.38;5045039;28;20035;-62
2023/04/02 00:55:56;;;;;;;15.98;11.27;;;;;;;6.04;100.00;101007.00;5044471;28;20384;-62
2023/04/02 00:58:32;;;;;;;14.40;11.55;;;;;;;5.96;100.00;101019.91;5046365;28;20111;-62
2023/04/02 01:00:59;;;;;;;16.02;11.50;;;;;;;5.95;100.00;101018.25;5046544;28;20473;-62
2023/04/02 01:03:34;;;;;;;14.90;11.50;;;;;;;5.93;100.00;101025.47;5046021;28;20556;-62
2023/04/02 01:06:14;;;;;;;14.70;11.90;;;;;;;5.93;100.00;101030.72;5046008;28;20431;-63
2023/04/02 01:08:40;;;;;;;14.43;10.93;;;;;;;5.95;100.00;101034.06;5040536;28;20112;-63
2023/04/02 01:11:37;;;;;;;15.65;11.90;;;;;;;5.89;100.00;101034.56;5042949;28;20033;-63
2023/04/02 01:14:18;;;;;;;14.63;11.70;;;;;;;5.96;100.00;101043.63;5044471;28;20033;-62
2023/04/02 01:17:31;;;;;;;14.40;11.60;;;;;;;6.00;100.00;101042.41;5045444;28;20258;-62
2023/04/02 01:20:25;;;;;;;15.57;11.93;;;;;;;5.93;100.00;101051.78;4958948;28;20065;-62
2023/04/02 01:22:53;;;;;;;14.52;11.60;;;;;;;5.91;100.00;101056.31;5037085;28;20087;-62
2023/04/02 01:25:45;;;;;;;16.30;12.45;;;;;;;5.92;100.00;101056.19;5039342;28;20029;-63
2023/04/02 01:28:52;;;;;;;16.50;11.98;;;;;;;6.02;100.00;101055.47;5035634;28;20056;-62
2023/04/02 01:31:17;;;;;;;16.30;12.65;;;;;;;5.90;100.00;101055.50;5038169;28;20045;-62
2023/04/02 01:33:44;;;;;;;16.67;12.68;;;;;;;5.87;100.00;101063.63;5038835;28;20044;-62
2023/04/02 01:36:40;;;;;;;17.20;12.75;;;;;;;5.89;100.00;101071.41;5045077;28;20033;-62
2023/04/02 01:39:30;;;;;;;17.65;11.38;;;;;;;5.92;100.00;101076.41;5040766;28;20025;-62
2023/04/02 01:41:56;;;;;;;15.45;12.10;;;;;;;5.82;100.00;101086.03;5043401;28;20115;-62
2023/04/02 01:44:48;;;;;;;16.38;12.30;;;;;;;5.78;100.00;101091.53;5043239;28;20092;-62
2023/04/02 01:47:17;;;;;;;18.98;13.40;;;;;;;5.73;100.00;101096.31;5040995;28;20052;-62
2023/04/02 01:49:44;;;;;;;18.95;13.32;;;;;;;5.72;100.00;101104.34;5038222;28;20112;-62
2023/04/02 01:52:18;;;;;;;18.58;13.63;;;;;;;5.71;100.00;101105.28;5040516;28;20044;-62
2023/04/02 01:54:46;;;;;;;16.83;12.45;;;;;;;5.81;100.00;101105.41;5041142;28;20047;-62
2023/04/02 01:57:12;;;;;;;16.05;11.80;;;;;;;5.71;100.00;101111.41;5044435;28;20028;-62
2023/04/02 01:59:37;;;;;;;16.38;11.98;;;;;;;5.62;100.00;101112.13;5042312;28;20037;-62
2023/04/02 02:02:08;;;;;;;17.58;11.45;;;;;;;5.61;100.00;101115.72;5042792;28;20029;-62
2023/04/02 02:04:33;;;;;;;15.98;11.75;;;;;;;5.60;100.00;101121.94;5042078;28;20104;-61
2023/04/02 02:07:01;;;;;;;14.15;10.75;;;;;;;5.63;100.00;101129.59;5043892;28;20132;-63
2023/04/02 02:09:29;;;;;;;14.20;10.38;;;;;;;5.65;100.00;101138.22;5045355;28;20111;-62
2023/04/02 02:11:56;;;;;;;12.23;9.55;;;;;;;5.56;100.00;101134.50;5040557;28;20124;-62
2023/04/02 02:14:27;;;;;;;12.77;9.35;;;;;;;5.51;100.00;101129.63;5046383;28;20489;-62
2023/04/02 02:16:55;;;;;;;11.68;9.38;;;;;;;5.48;100.00;101143.00;5045530;28;20111;-63
2023/04/02 02:19:23;;;;;;;10.38;8.50;;;;;;;5.51;100.00;101148.03;5043438;28;20036;-62
2023/04/02 02:21:52;;;;;;;12.32;8.60;;;;;;;5.51;100.00;101153.28;5043361;28;20069;-62
2023/04/02 02:24:23;;;;;;;10.48;8.30;;;;;;;5.47;100.00;101157.13;5044702;28;20476;-62
2023/04/02 02:27:21;;;;;;;11.77;8.40;;;;;;;5.52;100.00;101165.47;5043356;28;20431;-62
2023/04/02 02:29:51;;;;;;;9.88;7.38;;;;;;;5.64;100.00;101174.19;5020983;28;20160;-62
2023/04/02 02:32:24;;;;;;;10.27;7.20;;;;;;;5.54;100.00;101175.03;5045097;28;20028;-62
2023/04/02 02:34:55;;;;;;;;;;;;;;;5.71;100.00;101184.22;5037264;28;20498;-62
2023/04/02 02:37:28;;;;;;;9.35;6.35;;;;;;;5.48;100.00;101184.25;5044149;28;20613;-62
2023/04/02 02:39:57;;;;;;;7.65;5.93;;;;;;;5.48;100.00;101190.34;5044590;28;20048;-62
2023/04/02 02:42:30;;;;;;;8.20;6.47;;;;;;;5.43;100.00;101191.66;5036682;28;20089;-63
2023/04/02 02:44:56;;;;;;;8.73;6.53;;;;;;;5.37;100.00;101198.22;5044844;28;20048;-62
2023/04/02 02:47:31;;;;;;;8.43;6.20;;;;;;;5.50;100.00;101198.97;5040968;28;20548;-62
2023/04/02 02:50:01;;;;;;;10.88;6.90;;;;;;;5.38;100.00;101197.28;5045362;28;20096;-62
2023/04/02 02:52:30;;;;;;;7.88;6.07;;;;;;;5.35;100.00;101205.41;5039629;28;20056;-62
2023/04/02 02:54:59;;;;;;;9.48;6.88;;;;;;;5.37;100.00;101214.00;5041503;28;20021;-62
2023/04/02 02:57:30;;;;;;;9.32;6.90;;;;;;;5.40;100.00;101213.78;5041674;28;20038;-62
2023/04/02 02:59:58;;;;;;;8.65;6.85;;;;;;;5.39;100.00;101222.63;5044816;28;20044;-62
2023/04/02 03:02:26;;;;;;;9.77;7.35;;;;;;;5.40;100.00;101229.56;5040681;28;20043;-63
2023/04/02 03:04:53;;;;;;;9.30;7.25;;;;;;;5.32;100.00;101231.97;5043296;28;20116;-63
2023/04/02 03:07:24;;;;;;;11.23;7.25;;;;;;;5.29;100.00;101226.91;5041844;28;20534;-62
2023/04/02 03:09:58;;;;;;;10.77;8.65;;;;;;;5.42;100.00;101240.78;5043849;28;20035;-62
2023/04/02 03:12:48;;;;;;;14.82;9.30;;;;;;;5.41;100.00;101248.81;5042397;28;20141;-62
2023/04/02 03:15:51;;;;;;;13.27;9.27;;;;;;;5.39;100.00;101251.56;5044039;28;20477;-62
2023/04/02 03:18:28;;;;;;;13.50;10.52;;;;;;;5.29;100.00;101271.63;5031762;28;20033;-62
2023/04/02 03:21:08;;;;;;;14.93;10.13;;;;;;;5.31;100.00;101267.06;5045256;28;20029;-62
2023/04/02 03:23:44;;;;;;;13.45;10.20;;;;;;;5.21;100.00;101273.03;5045307;28;20530;-62
2023/04/02 03:26:29;;;;;;;13.95;11.02;;;;;;;5.20;100.00;101281.03;5044855;28;20029;-62
2023/04/02 03:29:01;;;;;;;18.10;10.63;;;;;;;5.11;100.00;101291.31;5034270;28;20598;-62
2023/04/02 03:31:34;;;;;;;15.82;10.75;;;;;;;5.14;100.00;101295.50;5039386;28;20037;-62
2023/04/02 03:34:18;;;;;;;14.52;10.20;;;;;;;5.12;100.00;101300.00;5043707;28;20778;-62
2023/04/02 03:37:01;;;;;;;14.95;10.55;;;;;;;5.11;100.00;101309.72;5043136;28;20056;-62
2023/04/02 03:39:38;;;;;;;14.18;10.63;;;;;;;5.04;100.00;101312.91;5043369;28;20423;-62
2023/04/02 03:42:24;;;;;;;16.30;11.00;;;;;;;5.03;100.00;101319.13;5042171;28;20048;-62
2023/04/02 03:45:08;;;;;;;15.52;10.40;;;;;;;4.98;100.00;101315.03;5043200;28;20044;-62
2023/04/02 03:47:38;;;;;;;15.55;10.07;;;;;;;4.89;100.00;101331.44;5041942;28;20057;-62
2023/04/02 03:50:10;;;;;;;13.98;9.77;;;;;;;4.87;100.00;101328.09;5042954;28;20045;-62
2023/04/02 03:52:37;;;;;;;12.20;8.63;;;;;;;4.84;100.00;101334.44;5041365;28;20101;-62
2023/04/02 03:55:23;;;;;;;14.57;9.80;;;;;;;4.84;100.00;101344.13;5042932;28;20048;-61
2023/04/02 03:57:56;;;;;;;14.52;9.90;;;;;;;4.79;100.00;101354.94;5042281;28;20029;-62
2023/04/02 04:00:40;;;;;;;;;;;;;;;4.95;100.00;101352.03;5042542;28;20135;-62
2023/04/02 04:03:34;;;;;;;16.17;9.20;;;;;;;4.81;100.00;101355.69;5034432;28;19932;-63
2023/04/02 04:06:18;;;;;;;13.57;9.57;;;;;;;4.83;100.00;101352.94;5017106;28;20076;-62
2023/04/02 04:09:08;;;;;;;13.45;9.70;;;;;;;4.87;100.00;101367.53;5034121;28;20059;-62
2023/04/02 04:11:38;;;;;;;15.02;10.05;;;;;;;4.79;100.00;101356.75;5035449;28;20078;-62
2023/04/02 04:14:15;;;;;;;14.90;10.05;;;;;;;4.80;100.00;101368.94;5036077;28;20033;-61
2023/04/02 04:17:14;;;;;;;15.35;10.45;;;;;;;4.79;100.00;101378.59;5035987;28;20041;-62
2023/04/02 04:19:44;;;;;;;13.98;10.68;;;;;;;4.85;100.00;101387.84;5039940;28;20049;-62
2023/04/02 04:22:32;;;;;;;17.98;11.52;;;;;;;4.73;100.00;101375.59;5042716;28;20048;-62
2023/04/02 04:25:01;;;;;;;16.98;11.07;;;;;;;4.77;100.00;101392.78;5040704;28;20032;-61
2023/04/02 04:27:44;;;;;;;15.13;10.82;;;;;;;4.76;100.00;101409.50;5042266;28;20025;-62
2023/04/02 04:30:26;;;;;;;15.38;11.30;;;;;;;4.75;100.00;101408.69;5041473;28;20033;-62
2023/04/02 04:33:09;;;;;;;16.08;11.38;;;;;;;4.79;100.00;101425.06;5042370;28;20473;-62
2023/04/02 04:35:45;;;;;;;14.82;10.88;;;;;;;4.80;100.00;101421.47;5033510;28;20514;-62
2023/04/02 04:38:16;;;;;;;15.35;11.13;;;;;;;4.78;100.00;101428.66;5041634;28;20112;-62
2023/04/02 04:40:52;;;;;;;15.82;10.82;;;;;;;4.76;100.00;101435.78;5041714;28;20910;-62
2023/04/02 04:43:28;;;;;;;14.27;10.27;;;;;;;4.71;100.00;101436.97;5031463;28;20519;-62
2023/04/02 04:46:04;;;;;;;16.02;10.40;;;;;;;4.71;100.00;101455.34;5041079;28;20091;-62
2023/04/02 04:48:49;;;;;;;13.48;8.98;;;;;;;4.65;100.00;101455.78;5035074;28;20049;-62
2023/04/02 04:51:28;;;;;;;12.57;8.77;;;;;;;4.71;100.00;101460.59;5036640;28;20029;-62
2023/04/02 04:53:54;;;;;;;10.68;8.20;;;;;;;4.56;100.00;101462.53;5035236;28;20036;-62
2023/04/02 04:56:26;;;;;;;10.98;7.90;;;;;;;4.58;100.00;101473.75;5037695;28;20032;-62
2023/04/02 04:59:02;;;;;;;11.85;8.23;;;;;;;4.55;100.00;101476.56;5034510;28;20075;-62
2023/04/02 05:01:49;;;;;;;11.93;8.48;;;;;;;4.56;100.00;101467.78;5036276;28;20036;-62
2023/04/02 05:04:37;;;;;;;13.75;8.30;;;;;;;4.57;100.00;101494.88;5035494;28;20033;-62
2023/04/02 05:07:20;;;;;;;12.57;8.10;;;;;;;4.48;100.00;101490.25;5038005;28;20093;-61
2023/04/02 05:10:04;;;;;;;12.60;8.13;;;;;;;4.42;100.00;101502.00;5037267;28;20043;-63
2023/04/02 05:12:41;;;;;;;12.95;8.38;;;;;;;4.37;100.00;101509.34;5033777;28;20079;-62
2023/04/02 05:15:14;;;;;;;11.13;7.43;;;;;;;4.41;100.00;101521.34;5038918;28;20033;-61
2023/04/02 05:17:59;;;;;;;12.38;8.60;;;;;;;4.37;100.00;101520.72;5042863;28;20064;-66
2023/04/02 05:20:39;;;;;;;13.40;9.15;;;;;;;4.40;100.00;101509.97;5042363;28;20091;-62
2023/04/02 05:23:28;;;;;;;14.00;8.60;;;;;;;4.42;100.00;101523.88;5039935;28;20121;-62
2023/04/02 05:26:05;;;;;;;12.07;8.60;;;;;;;4.36;100.00;101520.81;5038342;28;20033;-62
2023/04/02 05:28:39;;;;;;;13.80;8.63;;;;;;;4.24;100.00;101520.69;5039094;28;20112;-61
2023/04/02 05:31:11;;;;;;;12.77;8.20;;;;;;;4.23;100.00;101523.41;5039017;28;20129;-62
2023/04/02 05:33:38;;;;;;;11.75;7.80;;;;;;;4.29;99.85;101539.59;5041202;28;20033;-61
2023/04/02 05:36:11;;;;;;;12.25;7.78;;;;;;;4.21;100.00;101541.06;5035387;28;20033;-62
2023/04/02 05:38:42;;;;;;;11.02;8.07;;;;;;;4.24;100.00;101543.50;5037095;28;20043;-62
2023/04/02 05:41:37;;;;;;;9.95;8.13;;;;;;;4.32;100.00;101549.06;5044318;28;20382;-62
2023/04/02 05:44:08;;;;;;;11.25;7.72;;;;;;;4.29;100.00;101552.72;5035035;28;20095;-62
2023/04/02 05:46:55;;;;;;;12.00;8.23;;;;;;;4.38;100.00;101559.16;5038839;28;20044;-62
2023/04/02 05:49:28;;;;;;;12.25;7.97;;;;;;;4.38;100.00;101561.78;5043154;28;20033;-62
2023/04/02 05:51:57;;;;;;;11.45;8.65;;;;;;;4.31;100.00;101560.53;5042100;28;20037;-61
2023/04/02 05:54:31;;;;;;;12.65;8.02;;;;;;;4.33;100.00;101576.19;5040164;28;20040;-61
2023/04/02 05:57:03;;;;;;;13.68;8.93;;;;;;;4.38;99.63;101590.66;5043127;28;20736;-62
2023/04/02 05:59:34;;;;;;;13.57;9.13;;;;;;;4.29;100.00;101593.88;5042398;28;20036;-61
2023/04/02 06:02:15;;;;;;;13.80;9.48;;;;;;;4.30;100.00;101593.81;5041657;28;20063;-62
2023/04/02 06:04:49;;;;;;;13.57;9.70;;;;;;;4.31;100.00;101602.53;5047623;28;20032;-61
2023/04/02 06:07:33;;;;;;;15.60;9.40;;;;;;;4.24;100.00;101596.00;5042289;28;20516;-63
2023/04/02 06:10:25;;;;;;;13.65;9.07;;;;;;;4.41;100.00;101616.75;5038301;28;20135;-62
2023/04/02 06:13:02;;;;;;;14.73;9.60;;;;;;;4.29;100.00;101613.13;5034745;28;20038;-62
2023/04/02 06:15:28;;;;;;;16.45;11.00;;;;;;;4.23;100.00;101623.19;5045579;28;20268;-62
2023/04/02 06:18:32;;;;;;;16.80;10.70;;;;;;;4.27;100.00;101628.16;5041558;28;20037;-62
2023/04/02 06:20:59;;;;;;;17.48;10.80;;;;;;;4.27;99.80;101640.44;5035766;28;20032;-61
2023/04/02 06:23:32;;;;;;;16.98;10.98;;;;;;;4.21;99.48;101646.06;5043032;28;20098;-62
2023/04/02 06:26:35;;;;;;;17.02;10.50;;;;;;;4.36;99.14;101654.75;5043299;28;20123;-62
2023/04/02 06:29:08;;;;;;;15.52;10.20;;;;;;;4.06;98.72;101654.00;5024324;28;20047;-62
2023/04/02 06:31:36;;;;;;;;;;;;;;;4.24;100.00;101661.66;5042993;28;20549;-61
2023/04/02 06:34:06;;;;;;;17.25;10.52;;;;;;;4.02;99.29;101670.88;5042221;28;20404;-62
2023/04/02 06:36:32;;;;;;;16.25;10.05;;;;;;;4.17;97.03;101671.69;5042953;28;20029;-62
2023/04/02 06:39:04;;;;;;;14.82;9.48;;;;;;;4.00;98.46;101670.16;5042524;28;20064;-62
2023/04/02 06:41:29;;;;;;;15.67;9.73;;;;;;;4.00;98.27;101680.66;5037716;28;20075;-62
2023/04/02 06:44:00;;;;;;;19.27;10.00;;;;;;;4.08;99.25;101688.00;5038177;28;20025;-61
2023/04/02 06:46:31;;;;;;;13.25;8.95;;;;;;;4.20;96.31;101691.66;5040483;28;20710;-62
2023/04/02 06:49:24;;;;;;;15.73;8.75;;;;;;;4.10;97.23;101697.47;5038430;28;20599;-62
2023/04/02 06:51:53;;;;;;;13.18;8.27;;;;;;;4.12;96.13;101706.13;5036164;28;20445;-62
2023/04/02 06:54:19;;;;;;;14.02;8.35;;;;;;;4.11;94.41;101714.94;5042448;28;20025;-61
2023/04/02 06:56:48;;;;;;;14.50;7.65;;;;;;;4.07;94.61;101718.69;5039897;28;20056;-63
2023/04/02 06:59:14;;;;;;;14.27;8.48;;;;;;;4.02;96.27;101726.00;5040562;28;20021;-62
2023/04/02 07:02:18;;;;;;;11.98;7.60;;;;;;;4.31;94.56;101728.56;5039118;28;20065;-62
2023/04/02 07:04:44;;;;;;;11.68;7.50;;;;;;;4.07;93.62;101744.94;5042499;28;20037;-62
2023/04/02 07:07:09;;;;;;;13.02;7.72;;;;;;;3.98;93.79;101750.75;5037634;28;20033;-62
2023/04/02 07:09:34;;;;;;;13.25;7.10;;;;;;;3.99;93.50;101750.66;5042230;28;20179;-62
2023/04/02 07:12:00;;;;;;;13.00;6.88;;;;;;;3.96;93.21;101769.25;5042309;28;20025;-62
2023/04/02 07:14:25;;;;;;;11.63;6.78;;;;;;;3.99;93.61;101769.03;5041478;28;20039;-61
2023/04/02 07:16:51;;;;;;;13.10;7.53;;;;;;;4.00;96.38;101765.47;5042245;28;20047;-62
2023/04/02 07:19:21;;;;;;;10.48;5.88;;;;;;;4.02;93.60;101783.75;5042500;28;20678;-62
2023/04/02 07:21:47;;;;;;;8.50;5.35;;;;;;;3.97;92.87;101785.81;5042659;28;20095;-62
2023/04/02 07:24:13;;;;;;;9.75;5.95;;;;;;;3.93;93.81;101794.81;5044950;28;20032;-62
2023/04/02 07:26:39;;;;;;;11.73;6.10;;;;;;;3.93;95.02;101792.19;5038500;28;20044;-62
2023/04/02 07:29:12;;;;;;;8.60;5.38;;;;;;;3.94;93.06;101796.50;5039111;28;20033;-62
2023/04/02 07:31:39;;;;;;;8.38;5.35;;;;;;;3.89;92.57;101804.66;5037694;28;20135;-61
2023/04/02 07:34:05;;;;;;;10.50;5.38;;;;;;;3.87;90.95;101807.38;5044236;28;20588;-62
2023/04/02 07:36:31;;;;;;;9.65;5.00;;;;;;;3.71;92.17;101825.00;5039185;28;20048;-61
2023/04/02 07:38:56;;;;;;;10.05;4.93;;;;;;;3.77;90.39;101822.81;5041494;28;20414;-62
2023/04/02 07:41:22;;;;;;;9.05;4.60;;;;;;;3.70;91.23;101831.19;5041967;28;20033;-61
2023/04/02 07:43:47;;;;;;;8.80;4.90;;;;;;;3.71;90.76;101827.59;5039283;28;20033;-62
2023/04/02 07:46:15;;;;;;;12.10;5.10;;;;;;;3.66;92.10;101829.66;5040012;28;20040;-62
2023/04/02 07:48:41;;;;;;;8.65;4.75;;;;;;;3.67;91.39;101833.97;5043282;28;20045;-61
2023/04/02 07:51:15;;;;;;;12.05;4.75;;;;;;;3.78;92.00;101828.94;5040499;28;20032;-62
2023/04/02 07:53:40;;;;;;;8.95;4.53;;;;;;;3.72;92.11;101837.16;5039907;28;20033;-62
2023/04/02 07:56:07;;;;;;;9.60;4.28;;;;;;;3.82;89.30;101840.94;5034990;28;20033;-62
2023/04/02 07:58:32;;;;;;;9.25;4.63;;;;;;;3.77;91.10;101843.81;5043029;28;20043;-63
2023/04/02 08:00:58;;;;;;;8.95;4.50;;;;;;;3.87;90.95;101841.50;5039571;28;20676;-62
2023/04/02 08:03:25;;;;;;;7.68;4.40;;;;;;;3.79;89.92;101856.84;5043495;28;20061;-62
2023/04/02 08:05:56;;;;;;;9.00;4.45;;;;;;;3.81;90.06;101859.38;5041790;28;20382;-62
2023/04/02 08:08:23;;;;;;;6.90;4.30;;;;;;;3.73;90.76;101854.59;5039250;28;20033;-62
2023/04/02 08:10:49;;;;;;;10.18;4.30;;;;;;;3.86;90.64;101876.53;5040036;28;20037;-62
2023/04/02 08:13:16;;;;;;;8.05;4.00;;;;;;;3.84;88.72;101867.91;5039582;28;20024;-61
2023/04/02 08:15:41;;;;;;;7.57;4.13;;;;;;;3.88;88.20;101866.81;5041267;28;20025;-62
2023/04/02 08:18:07;;;;;;;8.88;4.22;;;;;;;3.90;88.01;101879.84;5038242;28;20110;-62
2023/04/02 08:20:33;;;;;;;9.80;4.22;;;;;;;3.98;87.69;101881.97;5040563;28;20425;-63
2023/04/02 08:22:59;;;;;;;7.32;3.90;;;;;;;3.98;87.44;101885.47;5042914;28;20041;-61
2023/04/02 08:25:26;;;;;;;9.02;4.32;;;;;;;3.91;88.90;101894.66;5049356;28;20021;-61
2023/04/02 08:27:51;;;;;;;7.47;4.20;;;;;;;3.95;87.77;101896.13;5037344;28;20037;-62
2023/04/02 08:30:18;;;;;;;8.05;4.05;;;;;;;3.95;89.38;101903.19;5034928;28;20040;-62
2023/04/02 08:32:44;;;;;;;11.43;4.30;;;;;;;3.91;90.50;101907.78;5035833;28;20061;-62
2023/04/02 08:35:13;;;;;;;8.70;3.85;;;;;;;4.00;89.85;101911.63;5035302;28;20520;-61
2023/04/02 08:37:39;;;;;;;8.43;3.88;;;;;;;3.97;88.37;101922.28;5040284;28;20025;-61
2023/04/02 08:40:08;;;;;;;6.63;3.67;;;;;;;3.98;89.39;101918.72;5043461;28;20043;-61
2023/04/02 08:42:46;;;;;;;8.07;3.95;;;;;;;4.05;88.76;101925.31;5037694;28;20040;-61
2023/04/02 08:45:35;;;;;;;8.85;3.83;;;;;;;3.98;92.18;101935.34;5043267;28;20491;-60
2023/04/02 08:48:02;;;;;;;8.10;3.75;;;;;;;4.00;89.65;101937.88;5041225;28;20052;-62
2023/04/02 08:50:27;;;;;;;7.70;3.85;;;;;;;4.01;90.39;101950.06;5042597;28;20060;-62
2023/04/02 08:52:52;;;;;;;6.55;3.40;;;;;;;4.15;87.62;101952.69;5035254;28;21834;-61
2023/04/02 08:55:32;;;;;;;7.93;3.95;;;;;;;4.09;89.51;101947.81;5040572;28;20040;-61
2023/04/02 08:58:23;;;;;;;10.25;3.70;;;;;;;4.11;87.51;101955.59;5030550;28;20823;-61
2023/04/02 09:00:53;;;;;;;6.95;3.70;;;;;;;4.08;88.53;101967.13;5008021;28;20041;-62
2023/04/02 09:03:26;;;;;;;7.70;3.50;;;;;;;4.07;86.25;101975.94;5028834;28;20105;-61
2023/04/02 09:05:53;;;;;;;6.30;3.55;;;;;;;4.06;88.58;101983.91;5031039;28;20037;-62
2023/04/02 09:08:21;;;;;;;5.05;3.45;;;;;;;4.04;88.42;101986.59;5028858;28;20068;-61
2023/04/02 09:11:08;;;;;;;5.90;3.50;;;;;;;4.16;88.02;101983.25;5049863;28;20171;-63
2023/04/02 09:13:37;;;;;;;9.90;3.97;;;;;;;4.08;88.21;101997.75;5038859;28;20033;-62
2023/04/02 09:16:11;;;;;;;6.65;3.40;;;;;;;4.22;88.33;101994.34;5036604;28;20037;-61
2023/04/02 09:18:38;;;;;;;7.25;3.40;;;;;;;4.15;88.87;101994.69;5038573;28;20029;-62
2023/04/02 09:21:17;;;;;;;8.85;3.85;;;;;;;4.17;88.08;102008.59;5035719;28;20037;-62
2023/04/02 09:23:43;;;;;;;7.18;3.35;;;;;;;4.13;86.69;102009.69;5040835;28;20037;-62
2023/04/02 09:26:21;;;;;;;7.57;3.58;;;;;;;4.11;87.24;102008.97;5039661;28;20039;-60
2023/04/02 09:28:51;;;;;;;9.23;3.40;;;;;;;4.25;85.14;102028.31;5044864;28;20033;-61
2023/04/02 09:31:29;;;;;;;7.68;3.60;;;;;;;4.12;88.25;102025.53;5036406;28;20041;-62
2023/04/02 09:33:55;;;;;;;8.48;3.33;;;;;;;4.21;86.62;102037.28;5040295;28;20570;-62
2023/04/02 09:36:36;;;;;;;8.93;3.35;;;;;;;4.24;87.33;102037.94;5036956;28;20033;-62
2023/04/02 09:39:16;;;;;;;9.68;3.30;;;;;;;4.30;87.17;102044.63;5037158;28;20102;-62
2023/04/02 09:41:41;;;;;;;7.47;3.10;;;;;;;4.28;86.40;102035.97;5036294;28;20036;-61
2023/04/02 09:44:10;;;;;;;10.80;3.60;;;;;;;4.30;86.24;102039.38;5035140;28;20034;-62
2023/04/02 09:46:36;;;;;;;7.72;3.35;;;;;;;4.29;88.58;102050.78;5035660;28;20081;-62
2023/04/02 09:49:01;;;;;;;8.05;3.70;;;;;;;4.37;88.59;102053.84;5038684;28;20433;-62
2023/04/02 09:51:30;;;;;;;5.75;3.90;;;;;;;4.34;87.77;102043.50;5034825;28;20033;-62
2023/04/02 09:54:01;;;;;;;6.05;3.30;;;;;;;4.46;86.97;102062.09;5033421;28;20048;-62
2023/04/02 09:56:29;;;;;;;4.40;3.40;;;;;;;4.43;86.64;102066.59;5039727;28;20024;-62
2023/04/02 09:59:11;;;;;;;9.57;3.90;;;;;;;4.42;87.83;102064.91;5052057;28;20038;-62
2023/04/02 10:01:46;;;;;;;6.63;3.50;;;;;;;4.37;87.87;102066.97;5036484;28;20039;-62
2023/04/02 10:04:46;;;;;;;8.88;3.60;;;;;;;4.47;86.17;102082.16;5037219;28;20068;-62
2023/04/02 10:07:38;;;;;;;7.60;3.80;;;;;;;4.42;89.11;102083.31;5033196;28;20151;-62
2023/04/02 10:10:39;;;;;;;8.68;3.85;;;;;;;4.47;87.73;102090.06;5038739;28;20116;-62
2023/04/02 10:13:16;;;;;;;9.52;4.22;;;;;;;4.46;85.22;102091.84;5035458;28;20053;-62
2023/04/02 10:15:51;;;;;;;7.00;4.40;;;;;;;4.33;88.65;102089.09;5036750;28;20045;-62
2023/04/02 10:18:51;;;;;;;9.95;4.00;;;;;;;4.46;87.77;102085.75;5036506;28;20029;-62
2023/04/02 10:21:22;;;;;;;7.75;3.80;;;;;;;4.34;87.50;102093.41;5017646;28;20053;-62
2023/04/02 10:23:47;;;;;;;6.00;3.45;;;;;;;4.33;86.32;102096.97;5033228;28;20063;-62
2023/04/02 10:26:35;;;;;;;7.35;3.38;;;;;;;4.36;87.29;102101.19;5040895;28;20033;-62
2023/04/02 10:29:21;;;;;;;6.93;3.45;;;;;;;4.36;88.29;102104.69;5040483;28;20074;-62
2023/04/02 10:32:05;;;;;;;6.32;3.70;;;;;;;4.47;89.37;102108.44;5037926;28;20443;-62
2023/04/02 10:34:42;;;;;;;7.10;3.30;;;;;;;4.54;87.09;102110.63;5039680;28;20036;-62
2023/04/02 10:37:31;;;;;;;7.40;3.30;;;;;;;4.55;87.83;102114.94;5036279;28;20093;-62
2023/04/02 10:40:08;;;;;;;7.45;3.50;;;;;;;4.65;85.30;102138.06;5039949;28;20040;-62
2023/04/02 10:43:11;;;;;;;7.47;3.40;;;;;;;4.65;86.55;102138.91;5037005;28;20033;-62
2023/04/02 10:45:53;;;;;;;11.18;4.22;;;;;;;4.55;87.17;102143.00;5029272;28;20049;-62
2023/04/02 10:48:54;;;;;;;6.40;3.60;;;;;;;4.48;85.80;102141.69;5039212;28;20053;-62
2023/04/02 10:51:47;;;;;;;9.23;3.53;;;;;;;4.53;88.04;102145.72;5035192;28;20067;-61
2023/04/02 10:54:35;;;;;;;8.27;3.63;;;;;;;4.65;86.26;102148.56;5038670;28;20029;-62
2023/04/02 10:57:28;;;;;;;5.72;3.60;;;;;;;4.58;87.94;102137.56;5032814;28;20812;-62
2023/04/02 11:00:24;;;;;;;6.90;3.60;;;;;;;4.61;85.08;102141.78;5037274;28;20040;-61
2023/04/02 11:03:08;;;;;;;6.50;3.78;;;;;;;4.61;86.75;102155.78;5028357;28;20040;-62
2023/04/02 11:05:42;;;;;;;10.60;3.95;;;;;;;4.74;85.29;102153.25;5037204;28;20120;-62
2023/04/02 11:08:31;;;;;;;8.52;3.85;;;;;;;4.89;85.53;102162.03;5039597;28;20037;-62
2023/04/02 11:11:06;;;;;;;11.32;3.83;;;;;;;4.93;84.28;102167.97;5037294;28;20465;-62
2023/04/02 11:13:42;;;;;;;6.80;3.33;;;;;;;5.10;82.40;102170.41;5040404;28;20033;-65
2023/04/02 11:16:11;;;;;;;5.90;3.53;;;;;;;5.07;83.45;102180.25;5036971;28;20537;-62
2023/04/02 11:18:37;;;;;;;6.82;3.40;;;;;;;5.04;80.30;102175.22;5035094;28;20037;-62
2023/04/02 11:21:38;;;;;;;6.60;3.63;;;;;;;5.08;84.30;102181.97;5037396;28;20033;-62
2023/04/02 11:24:04;;;;;;;6.35;3.83;;;;;;;5.23;81.30;102190.72;5031736;28;20035;-62
2023/04/02 11:26:36;;;;;;;8.52;3.90;;;;;;;5.22;80.49;102197.75;5035877;28;20036;-62
2023/04/02 11:29:20;;;;;;;7.85;3.92;;;;;;;5.23;81.45;102193.34;5032914;28;20064;-61
2023/04/02 11:31:47;;;;;;;9.60;3.70;;;;;;;5.21;80.30;102203.97;5030700;28;20053;-62
2023/04/02 11:34:44;;;;;;;9.55;3.92;;;;;;;5.24;83.23;102198.50;5037364;28;20085;-62
2023/04/02 11:37:28;;;;;;;7.13;4.25;;;;;;;5.42;82.24;102203.59;5034015;28;20520;-62
2023/04/02 11:39:58;;;;;;;8.45;3.42;;;;;;;5.41;80.84;102203.69;5041746;28;20044;-62
2023/04/02 11:42:29;;;;;;;5.15;3.50;;;;;;;5.54;81.31;102214.31;5035078;28;20021;-62
2023/04/02 11:44:59;;;;;;;5.78;3.10;;;;;;;5.49;80.60;102210.16;5027663;28;20147;-62
2023/04/02 11:47:26;;;;;;;5.45;3.50;;;;;;;5.60;82.51;102213.94;5033863;28;20092;-62
2023/04/02 11:49:59;;;;;;;6.57;3.38;;;;;;;5.74;79.70;102221.81;5036696;28;20041;-62
2023/04/02 11:52:50;;;;;;;8.23;3.92;;;;;;;5.73;82.89;102206.94;5034621;28;20025;-61
2023/04/02 11:55:29;;;;;;;6.10;3.28;;;;;;;5.74;79.08;102221.81;5034602;28;20021;-62
2023/04/02 11:58:16;;;;;;;6.07;3.03;;;;;;;5.68;80.43;102222.22;5038757;28;20121;-62
2023/04/02 12:00:56;;;;;;;7.05;3.72;;;;;;;5.76;81.10;102230.47;5035602;28;20052;-63